createdAt,value
2023-04-24T00:00:10.171Z,12.70
2023-04-24T00:02:40.070Z,12.60
2023-04-24T00:05:10.300Z,12.60
2023-04-24T00:07:38.965Z,12.50
2023-04-24T00:10:11.290Z,12.50
2023-04-24T00:12:40.833Z,12.40
2023-04-24T00:15:11.654Z,12.50
2023-04-24T00:17:40.308Z,12.10
2023-04-24T00:20:11.715Z,12.10
2023-04-24T00:22:41.055Z,12.40
2023-04-24T00:25:11.781Z,12.40
2023-04-24T00:27:40.568Z,12.50
2023-04-24T00:30:10.812Z,12.60
2023-04-24T00:32:39.505Z,12.60
2023-04-24T00:35:09.415Z,12.60
2023-04-24T00:37:38.124Z,12.70
2023-04-24T00:40:08.815Z,12.60
2023-04-24T00:42:39.139Z,12.50
2023-04-24T00:45:09.649Z,12.60
2023-04-24T00:47:39.556Z,12.60
2023-04-24T00:50:10.354Z,12.60
2023-04-24T00:52:41.903Z,12.60
2023-04-24T00:55:11.606Z,12.60
2023-04-24T00:57:42.072Z,12.60
2023-04-24T01:00:13.100Z,12.60
2023-04-24T01:02:46.437Z,12.50
2023-04-24T01:05:16.618Z,12.50
2023-04-24T01:07:50.078Z,12.50
2023-04-24T01:10:19.395Z,12.50
2023-04-24T01:12:50.227Z,12.50
2023-04-24T01:15:19.692Z,12.40
2023-04-24T01:17:49.028Z,12.40
2023-04-24T01:20:18.990Z,12.40
2023-04-24T01:22:49.117Z,12.50
2023-04-24T01:25:18.032Z,12.50
2023-04-24T01:27:47.237Z,12.40
2023-04-24T01:30:16.984Z,12.30
2023-04-24T01:32:47.685Z,12.20
2023-04-24T01:35:16.680Z,12.20
2023-04-24T01:37:45.922Z,12.20
2023-04-24T01:40:16.376Z,12.30
2023-04-24T01:42:45.292Z,12.30
2023-04-24T01:45:15.047Z,12.40
2023-04-24T01:47:44.162Z,12.20
2023-04-24T01:50:13.328Z,12.30
2023-04-24T01:52:42.028Z,12.30
2023-04-24T01:55:12.985Z,12.20
2023-04-24T01:57:43.468Z,12.00
2023-04-24T02:00:14.183Z,12.10
2023-04-24T02:02:46.509Z,12.10
2023-04-24T02:05:16.942Z,12.20
2023-04-24T02:07:46.009Z,12.30
2023-04-24T02:10:14.804Z,12.40
2023-04-24T02:12:47.854Z,12.40
2023-04-24T02:15:18.199Z,12.40
2023-04-24T02:17:46.949Z,12.40
2023-04-24T02:20:15.917Z,12.40
2023-04-24T02:22:44.576Z,12.40
2023-04-24T02:25:13.556Z,12.40
2023-04-24T02:27:42.278Z,12.50
2023-04-24T02:30:13.620Z,12.30
2023-04-24T02:32:42.338Z,12.30
2023-04-24T02:35:13.473Z,12.20
2023-04-24T02:37:42.496Z,12.20
2023-04-24T02:40:14.935Z,12.20
2023-04-24T02:42:43.721Z,12.30
2023-04-24T02:45:14.130Z,12.20
2023-04-24T02:47:43.064Z,12.20
2023-04-24T02:50:12.506Z,12.20
2023-04-24T02:52:41.200Z,12.20
2023-04-24T02:55:10.822Z,12.10
2023-04-24T02:57:39.581Z,12.10
2023-04-24T03:00:10.824Z,12.20
2023-04-24T03:02:41.355Z,12.10
2023-04-24T03:05:14.932Z,12.10
2023-04-24T03:07:43.812Z,12.10
2023-04-24T03:10:12.825Z,12.10
2023-04-24T03:12:41.678Z,12.20
2023-04-24T03:15:39.562Z,12.20
2023-04-24T03:18:09.729Z,12.20
2023-04-24T03:20:39.057Z,12.20
2023-04-24T03:23:07.947Z,12.20
2023-04-24T03:25:37.816Z,12.20
2023-04-24T03:28:07.361Z,12.20
2023-04-24T03:30:45.877Z,12.20
2023-04-24T03:33:17.091Z,12.10
2023-04-24T03:35:56.021Z,12.20
2023-04-24T03:38:25.009Z,12.30
2023-04-24T03:41:11.511Z,12.10
2023-04-24T03:43:52.824Z,12.10
2023-04-24T03:46:22.165Z,12.20
2023-04-24T03:48:58.107Z,12.20
2023-04-24T03:51:32.582Z,12.20
2023-04-24T03:54:13.532Z,12.20
2023-04-24T03:56:59.438Z,12.20
2023-04-24T03:59:33.138Z,12.20
2023-04-24T04:25:53.212Z,12.30
2023-04-24T04:29:18.752Z,12.30
2023-04-24T04:31:53.747Z,12.30
2023-04-24T04:34:26.463Z,12.30
2023-04-24T04:37:18.673Z,12.20
2023-04-24T04:39:59.489Z,12.20
2023-04-24T04:43:53.656Z,12.30
2023-04-24T04:46:27.314Z,12.30
2023-04-24T04:50:39.071Z,12.30
2023-04-24T04:53:37.283Z,12.30
2023-04-24T04:56:06.935Z,12.40
2023-04-24T04:58:42.766Z,12.40
2023-04-24T05:01:15.309Z,12.40
2023-04-24T05:03:49.637Z,12.40
2023-04-24T05:06:19.895Z,12.50
2023-04-24T05:08:49.800Z,12.50
2023-04-24T05:12:11.070Z,12.50
2023-04-24T05:14:48.126Z,12.60
2023-04-24T05:17:17.642Z,12.60
2023-04-24T05:19:49.453Z,12.60
2023-04-24T05:33:55.576Z,12.70
2023-04-24T05:36:28.219Z,12.70
2023-04-24T05:38:57.668Z,12.80
2023-04-24T05:41:26.979Z,12.80
2023-04-24T05:43:55.982Z,12.80
2023-04-24T05:46:29.579Z,12.80
2023-04-24T05:48:59.092Z,12.80
2023-04-24T05:51:29.320Z,12.90
2023-04-24T05:53:58.435Z,12.90
2023-04-24T05:56:28.777Z,12.90
2023-04-24T05:58:58.029Z,12.90
2023-04-24T06:01:27.968Z,12.90
2023-04-24T06:04:08.063Z,13.00
2023-04-24T06:06:39.203Z,13.00
2023-04-24T06:09:08.377Z,13.00
2023-04-24T06:11:37.110Z,13.00
2023-04-24T06:14:06.225Z,12.90
2023-04-24T06:16:41.087Z,13.00
2023-04-24T06:19:30.377Z,13.00
2023-04-24T06:22:00.710Z,13.00
2023-04-24T06:24:30.589Z,13.00
2023-04-24T06:27:02.378Z,13.00
2023-04-24T06:29:31.199Z,13.00
2023-04-24T06:31:59.973Z,12.90
2023-04-24T06:34:28.666Z,13.10
2023-04-24T06:36:57.462Z,13.00
2023-04-24T06:39:29.361Z,13.10
2023-04-24T06:41:58.086Z,13.20
2023-04-24T06:44:26.975Z,13.20
2023-04-24T06:46:55.705Z,13.20
2023-04-24T06:49:24.451Z,13.20
2023-04-24T06:51:53.071Z,13.20
2023-04-24T06:54:21.902Z,13.20
2023-04-24T06:56:53.215Z,13.20
2023-04-24T06:59:21.951Z,13.30
2023-04-24T07:01:52.120Z,13.40
2023-04-24T07:04:23.055Z,13.40
2023-04-24T07:06:52.592Z,13.50
2023-04-24T07:09:21.554Z,13.50
2023-04-24T07:11:52.438Z,13.50
2023-04-24T07:14:21.719Z,13.50
2023-04-24T07:16:50.980Z,13.50
2023-04-24T07:19:19.956Z,13.60
2023-04-24T07:21:48.667Z,13.70
2023-04-24T07:24:17.410Z,13.80
2023-04-24T07:26:47.540Z,13.80
2023-04-24T07:29:17.652Z,13.90
2023-04-24T07:31:46.753Z,13.90
2023-04-24T07:34:15.671Z,14.00
2023-04-24T07:36:44.587Z,14.00
2023-04-24T07:39:13.553Z,14.10
2023-04-24T07:41:42.330Z,14.10
2023-04-24T07:44:11.122Z,14.20
2023-04-24T07:46:41.373Z,14.20
2023-04-24T07:49:13.441Z,14.30
2023-04-24T07:51:43.217Z,14.30
2023-04-24T07:54:11.967Z,14.30
2023-04-24T07:56:40.922Z,14.40
2023-04-24T07:59:10.823Z,14.40
2023-04-24T08:01:41.180Z,14.40
2023-04-24T08:04:10.569Z,14.50
2023-04-24T08:06:39.377Z,14.60
2023-04-24T08:09:09.676Z,14.70
2023-04-24T08:11:38.460Z,14.80
2023-04-24T08:14:07.450Z,14.90
2023-04-24T08:16:37.600Z,15.00
2023-04-24T08:19:07.917Z,14.90
2023-04-24T08:21:36.727Z,14.80
2023-04-24T08:24:08.849Z,14.70
2023-04-24T08:26:42.612Z,14.80
2023-04-24T08:29:11.700Z,14.70
2023-04-24T08:31:40.342Z,14.70
2023-04-24T08:34:11.743Z,14.80
2023-04-24T08:36:47.066Z,14.90
2023-04-24T08:39:16.974Z,14.80
2023-04-24T08:41:46.580Z,14.80
2023-04-24T08:44:17.312Z,14.80
2023-04-24T08:46:48.703Z,14.80
2023-04-24T08:49:20.503Z,14.90
2023-04-24T08:51:50.764Z,15.00
2023-04-24T08:54:20.478Z,15.00
2023-04-24T08:56:51.223Z,15.00
2023-04-24T08:59:20.725Z,15.10
2023-04-24T09:01:51.951Z,15.10
2023-04-24T09:04:25.997Z,15.20
2023-04-24T09:06:58.980Z,15.40
2023-04-24T09:09:28.357Z,15.30
2023-04-24T09:11:57.013Z,15.30
2023-04-24T09:14:26.259Z,15.30
2023-04-24T09:16:55.040Z,15.30
2023-04-24T09:19:25.277Z,15.20
2023-04-24T09:21:56.233Z,15.30
2023-04-24T09:24:25.666Z,15.40
2023-04-24T09:27:02.498Z,15.40
2023-04-24T09:29:32.943Z,15.40
2023-04-24T09:32:01.968Z,15.50
2023-04-24T09:34:32.300Z,15.50
2023-04-24T09:37:00.984Z,15.40
2023-04-24T09:39:29.702Z,15.40
2023-04-24T09:41:59.687Z,15.60
2023-04-24T09:44:30.492Z,15.60
2023-04-24T09:47:01.926Z,15.60
2023-04-24T09:49:34.389Z,15.70
2023-04-24T09:52:07.351Z,15.70
2023-04-24T09:54:37.867Z,15.70
2023-04-24T09:57:09.556Z,15.80
2023-04-24T09:59:45.080Z,15.90
2023-04-24T10:02:21.226Z,16.00
2023-04-24T10:05:01.429Z,16.10
2023-04-24T10:07:30.639Z,16.10
2023-04-24T10:10:00.129Z,15.90
2023-04-24T10:12:30.052Z,15.90
2023-04-24T10:15:00.591Z,16.10
2023-04-24T10:17:31.320Z,16.30
2023-04-24T10:20:03.765Z,16.50
2023-04-24T10:22:33.075Z,16.50
2023-04-24T10:25:02.501Z,16.50
2023-04-24T10:27:34.205Z,16.50
2023-04-24T10:30:05.070Z,16.60
2023-04-24T10:32:33.833Z,16.50
2023-04-24T10:35:04.106Z,16.60
2023-04-24T10:37:40.385Z,16.60
2023-04-24T10:40:12.366Z,16.70
2023-04-24T10:42:43.968Z,16.80
2023-04-24T10:45:22.344Z,16.80
2023-04-24T10:48:05.049Z,16.70
2023-04-24T10:50:48.350Z,16.50
2023-04-24T10:53:20.141Z,16.30
2023-04-24T10:55:52.833Z,16.30
2023-04-24T10:58:26.440Z,16.30
2023-04-24T11:01:00.660Z,16.40
2023-04-24T11:03:32.805Z,16.20
2023-04-24T11:06:06.425Z,16.30
2023-04-24T11:08:41.578Z,16.10
2023-04-24T11:11:15.860Z,16.10
2023-04-24T11:14:10.483Z,16.10
2023-04-24T11:16:56.902Z,16.20
2023-04-24T11:19:30.032Z,16.50
2023-04-24T11:22:04.560Z,17.00
2023-04-24T11:24:40.861Z,17.20
2023-04-24T11:27:21.186Z,17.10
2023-04-24T11:30:03.619Z,17.40
2023-04-24T11:32:37.893Z,17.50
2023-04-24T11:35:11.182Z,17.50
2023-04-24T11:37:49.528Z,17.90
2023-04-24T11:40:29.051Z,17.90
2023-04-24T11:42:57.927Z,18.30
2023-04-24T11:45:30.440Z,18.10
2023-04-24T11:48:00.960Z,17.90
2023-04-24T11:50:30.865Z,18.00
2023-04-24T11:53:03.874Z,17.80
2023-04-24T11:55:33.242Z,17.80
2023-04-24T11:58:02.788Z,17.60
2023-04-24T12:00:36.712Z,17.30
2023-04-24T12:03:13.036Z,16.90
2023-04-24T12:05:43.249Z,16.90
2023-04-24T12:08:13.821Z,16.90
2023-04-24T12:10:42.764Z,16.70
2023-04-24T12:13:13.275Z,16.90
2023-04-24T12:15:43.480Z,17.70
2023-04-24T12:18:15.147Z,17.80
2023-04-24T12:20:44.437Z,17.40
2023-04-24T12:23:14.643Z,17.10
2023-04-24T12:25:43.712Z,17.00
2023-04-24T12:28:14.534Z,17.10
2023-04-24T12:30:49.660Z,17.20
2023-04-24T12:33:20.899Z,17.10
2023-04-24T12:35:54.396Z,17.00
2023-04-24T12:38:28.501Z,16.80
2023-04-24T12:41:06.660Z,16.90
2023-04-24T12:43:36.057Z,17.00
2023-04-24T12:46:08.315Z,17.10
2023-04-24T12:48:37.222Z,17.40
2023-04-24T12:51:06.877Z,17.40
2023-04-24T12:53:37.217Z,17.50
2023-04-24T12:56:07.101Z,17.50
2023-04-24T12:58:35.850Z,17.60
2023-04-24T13:01:04.845Z,17.80
2023-04-24T13:03:35.930Z,18.40
2023-04-24T13:06:04.947Z,18.70
2023-04-24T13:08:34.349Z,18.80
2023-04-24T13:11:08.681Z,19.10
2023-04-24T13:13:41.096Z,19.50
2023-04-24T13:16:11.794Z,20.00
2023-04-24T13:18:41.845Z,19.90
2023-04-24T13:21:10.692Z,19.80
2023-04-24T13:23:39.557Z,19.40
2023-04-24T13:26:10.300Z,19.50
2023-04-24T13:28:39.412Z,19.70
2023-04-24T13:31:08.554Z,19.80
2023-04-24T13:33:37.381Z,19.20
2023-04-24T13:36:07.425Z,19.10
2023-04-24T13:38:36.847Z,19.00
2023-04-24T13:41:08.588Z,18.60
2023-04-24T13:43:37.956Z,18.70
2023-04-24T13:46:07.348Z,19.10
2023-04-24T13:48:36.591Z,19.30
2023-04-24T13:51:07.785Z,18.80
2023-04-24T13:53:40.838Z,18.90
2023-04-24T13:56:13.365Z,19.50
2023-04-24T13:58:44.756Z,19.70
2023-04-24T14:01:14.636Z,19.80
2023-04-24T14:03:44.776Z,19.50
2023-04-24T14:06:14.777Z,19.70
2023-04-24T14:08:49.133Z,19.80
2023-04-24T14:11:21.287Z,20.30
2023-04-24T14:13:51.052Z,19.70
2023-04-24T14:16:21.536Z,19.70
2023-04-24T14:18:50.822Z,19.60
2023-04-24T14:21:19.836Z,19.80
2023-04-24T14:23:50.120Z,20.20
2023-04-24T14:26:20.699Z,20.70
2023-04-24T14:28:50.235Z,21.20
2023-04-24T14:31:19.921Z,20.80
2023-04-24T14:33:49.799Z,20.90
2023-04-24T14:36:24.022Z,20.70
2023-04-24T14:38:53.510Z,21.30
2023-04-24T14:41:37.030Z,21.40
2023-04-24T14:44:06.867Z,21.20
2023-04-24T14:46:36.164Z,21.30
2023-04-24T14:49:06.478Z,21.00
2023-04-24T14:51:36.350Z,20.90
2023-04-24T14:54:07.595Z,20.80
2023-04-24T14:56:44.833Z,20.40
2023-04-24T14:59:14.766Z,20.40
2023-04-24T15:01:43.783Z,20.30
2023-04-24T15:04:13.233Z,20.60
2023-04-24T15:06:43.402Z,20.60
2023-04-24T15:09:13.151Z,20.30
2023-04-24T15:11:53.479Z,20.50
2023-04-24T15:14:24.161Z,20.50
2023-04-24T15:16:53.204Z,19.80
2023-04-24T15:19:24.094Z,19.30
2023-04-24T15:21:56.065Z,19.10
2023-04-24T15:24:25.619Z,18.90
2023-04-24T15:26:59.429Z,19.30
2023-04-24T15:29:30.372Z,19.70
2023-04-24T15:31:59.953Z,19.60
2023-04-24T15:34:29.368Z,19.30
2023-04-24T15:36:58.156Z,19.60
2023-04-24T15:39:27.965Z,19.50
2023-04-24T15:41:58.545Z,19.30
2023-04-24T15:44:27.508Z,19.40
2023-04-24T15:46:57.235Z,19.10
2023-04-24T15:49:26.094Z,19.60
2023-04-24T15:51:55.940Z,19.40
2023-04-24T15:54:24.662Z,19.50
2023-04-24T15:56:54.957Z,19.30
2023-04-24T15:59:29.365Z,19.40
2023-04-24T16:02:02.267Z,19.30
2023-04-24T16:04:35.683Z,19.40
2023-04-24T16:07:04.703Z,19.20
2023-04-24T16:09:35.187Z,19.20
2023-04-24T16:12:04.129Z,19.00
2023-04-24T16:14:34.498Z,19.20
2023-04-24T16:17:03.239Z,19.20
2023-04-24T16:19:34.225Z,19.20
2023-04-24T16:22:03.646Z,18.80
2023-04-24T16:24:33.574Z,18.70
2023-04-24T16:27:02.309Z,18.10
2023-04-24T16:29:33.856Z,18.10
2023-04-24T16:32:03.250Z,17.90
2023-04-24T16:34:32.406Z,17.80
2023-04-24T16:37:03.680Z,17.60
2023-04-24T16:39:32.595Z,17.50
2023-04-24T16:42:01.610Z,17.40
2023-04-24T16:44:30.483Z,17.30
2023-04-24T16:47:00.965Z,16.90
2023-04-24T16:49:31.617Z,17.10
2023-04-24T16:52:00.928Z,17.20
2023-04-24T16:54:34.931Z,17.20
2023-04-24T16:57:05.661Z,17.00
2023-04-24T16:59:35.075Z,17.00
2023-04-24T17:02:08.439Z,17.10
2023-04-24T17:04:37.775Z,17.10
2023-04-24T17:07:07.867Z,16.60
2023-04-24T17:09:37.482Z,16.80
2023-04-24T17:12:11.149Z,17.00
2023-04-24T17:14:41.041Z,17.10
2023-04-24T17:17:13.473Z,17.00
2023-04-24T17:19:43.647Z,17.10
2023-04-24T17:22:13.888Z,16.80
2023-04-24T17:24:44.426Z,16.50
2023-04-24T17:27:15.378Z,16.60
2023-04-24T17:29:45.943Z,16.50
2023-04-24T17:32:16.291Z,16.80
2023-04-24T17:34:45.769Z,16.60
2023-04-24T17:37:14.632Z,16.30
2023-04-24T17:39:44.037Z,16.40
2023-04-24T17:42:13.405Z,16.40
2023-04-24T17:44:42.080Z,16.40
2023-04-24T17:47:11.574Z,16.10
2023-04-24T17:49:42.911Z,16.00
2023-04-24T17:52:12.172Z,16.10
2023-04-24T17:54:41.085Z,16.10
2023-04-24T17:57:13.630Z,16.20
2023-04-24T17:59:42.429Z,16.10
2023-04-24T18:02:11.589Z,16.00
2023-04-24T18:04:43.200Z,15.90
2023-04-24T18:07:12.502Z,15.90
2023-04-24T18:09:41.484Z,15.80
2023-04-24T18:12:11.068Z,15.80
2023-04-24T18:14:40.150Z,15.70
2023-04-24T18:17:09.115Z,15.50
2023-04-24T18:19:38.268Z,15.40
2023-04-24T18:22:08.552Z,15.50
2023-04-24T18:24:37.348Z,15.50
2023-04-24T18:27:07.318Z,15.20
2023-04-24T18:29:36.555Z,15.30
2023-04-24T18:32:05.473Z,15.40
2023-04-24T18:34:34.293Z,15.30
2023-04-24T18:37:03.058Z,15.30
2023-04-24T18:39:33.177Z,15.30
2023-04-24T18:42:03.593Z,15.00
2023-04-24T18:44:32.486Z,15.10
2023-04-24T18:47:01.556Z,15.10
2023-04-24T18:49:30.332Z,15.00
2023-04-24T18:52:01.133Z,15.10
2023-04-24T18:54:30.589Z,15.00
2023-04-24T18:57:01.773Z,15.00
2023-04-24T18:59:30.702Z,15.00
2023-04-24T19:01:59.923Z,15.00
2023-04-24T19:04:30.214Z,14.80
2023-04-24T19:06:59.049Z,14.70
2023-04-24T19:09:28.265Z,14.90
2023-04-24T19:11:57.044Z,14.80
2023-04-24T19:14:27.172Z,15.00
2023-04-24T19:16:56.282Z,15.00
2023-04-24T19:19:26.165Z,15.20
2023-04-24T19:21:55.714Z,15.20
2023-04-24T19:24:26.049Z,14.90
2023-04-24T19:26:55.477Z,15.00
2023-04-24T19:29:30.033Z,14.90
2023-04-24T19:31:59.016Z,15.00
2023-04-24T19:34:29.430Z,15.00
2023-04-24T19:36:58.184Z,15.00
2023-04-24T19:39:26.962Z,15.00
2023-04-24T19:41:57.213Z,14.90
2023-04-24T19:44:26.386Z,15.00
2023-04-24T19:46:59.551Z,15.00
2023-04-24T19:49:30.905Z,15.00
2023-04-24T19:52:00.277Z,14.80
2023-04-24T19:54:29.499Z,14.70
2023-04-24T19:56:58.238Z,14.70
2023-04-24T19:59:27.079Z,14.70
2023-04-24T20:01:57.268Z,14.70
2023-04-24T20:04:26.167Z,14.40
2023-04-24T20:06:54.981Z,14.30
2023-04-24T20:09:23.721Z,14.30
2023-04-24T20:11:53.709Z,14.30
2023-04-24T20:14:22.493Z,14.30
2023-04-24T20:16:51.262Z,14.40
2023-04-24T20:19:21.962Z,14.30
2023-04-24T20:21:51.237Z,14.40
2023-04-24T20:24:20.266Z,14.40
2023-04-24T20:26:48.971Z,14.40
2023-04-24T20:29:17.665Z,14.30
2023-04-24T20:31:46.632Z,14.20
2023-04-24T20:34:15.709Z,13.60
2023-04-24T20:36:48.823Z,13.60
2023-04-24T20:39:18.680Z,13.80
2023-04-24T20:41:47.636Z,13.70
2023-04-24T20:44:16.431Z,13.50
2023-04-24T20:46:45.335Z,13.80
2023-04-24T20:49:14.029Z,13.70
2023-04-24T20:51:44.228Z,13.90
2023-04-24T20:54:12.927Z,13.80
2023-04-24T20:56:41.671Z,13.80
2023-04-24T20:59:10.272Z,13.70
2023-04-24T21:01:38.970Z,13.60
2023-04-24T21:04:07.914Z,13.50
2023-04-24T21:06:36.641Z,13.60
2023-04-24T21:09:07.934Z,13.60
2023-04-24T21:11:36.686Z,13.60
2023-04-24T21:14:05.547Z,13.70
2023-04-24T21:16:35.295Z,13.70
2023-04-24T21:19:04.353Z,13.60
2023-04-24T21:21:34.124Z,13.60
2023-04-24T21:24:04.428Z,13.60
2023-04-24T21:26:34.645Z,13.50
2023-04-24T21:29:03.665Z,13.60
2023-04-24T21:31:32.482Z,13.60
2023-04-24T21:34:01.180Z,13.60
2023-04-24T21:36:32.242Z,13.50
2023-04-24T21:39:01.396Z,13.50
2023-04-24T21:41:30.068Z,13.50
2023-04-24T21:44:00.640Z,13.40
2023-04-24T21:46:29.522Z,13.50
2023-04-24T21:48:58.226Z,13.50
2023-04-24T21:51:27.059Z,13.50
2023-04-24T21:53:55.743Z,13.40
2023-04-24T21:56:24.624Z,13.40
2023-04-24T21:58:53.674Z,13.50
2023-04-24T22:01:23.847Z,13.60
2023-04-24T22:03:55.517Z,13.40
2023-04-24T22:06:24.564Z,13.40
2023-04-24T22:08:53.181Z,13.30
2023-04-24T22:11:26.849Z,13.20
2023-04-24T22:13:56.115Z,13.10
2023-04-24T22:19:06.483Z,12.90
2023-04-24T22:21:35.454Z,12.90
2023-04-24T22:24:04.350Z,12.70
2023-04-24T22:26:33.268Z,12.90
2023-04-24T22:29:02.043Z,12.80
2023-04-24T22:31:31.109Z,12.50
2023-04-24T22:33:59.889Z,12.60
2023-04-24T22:36:29.985Z,12.40
2023-04-24T22:38:58.768Z,12.40
2023-04-24T22:41:27.516Z,12.10
2023-04-24T22:43:56.804Z,12.20
2023-04-24T22:46:26.162Z,12.10
2023-04-24T22:48:58.484Z,12.00
2023-04-24T22:51:27.356Z,11.90
2023-04-24T22:53:58.020Z,12.00
2023-04-24T22:56:26.811Z,12.10
2023-04-24T22:58:55.719Z,11.90
2023-04-24T23:01:27.146Z,11.90
2023-04-24T23:03:56.102Z,11.70
2023-04-24T23:06:24.978Z,11.70
2023-04-24T23:08:53.888Z,11.80
2023-04-24T23:11:23.985Z,11.90
2023-04-24T23:13:52.703Z,11.90
2023-04-24T23:16:22.580Z,11.90
2023-04-24T23:18:51.384Z,11.90
2023-04-24T23:21:20.101Z,11.90
2023-04-24T23:23:50.709Z,11.70
2023-04-24T23:26:20.432Z,11.70
2023-04-24T23:28:50.603Z,11.80
2023-04-24T23:31:19.334Z,11.80
2023-04-24T23:33:48.067Z,11.70
2023-04-24T23:36:17.067Z,11.80
2023-04-24T23:38:50.141Z,11.70
2023-04-24T23:41:20.726Z,11.60
2023-04-24T23:43:51.224Z,11.70
2023-04-24T23:46:20.299Z,11.60
2023-04-24T23:48:49.043Z,11.60
2023-04-24T23:51:17.859Z,11.50
2023-04-24T23:53:46.686Z,11.60
2023-04-24T23:56:15.600Z,11.60
2023-04-24T23:58:44.256Z,11.70
